sensor_id;sensor_type;location;lat;lon;timestamp;temperature;humidity
34460;DHT22;20704;51.260;22.558;2023-07-16T00:00:02;21.80;1.00
34460;DHT22;20704;51.260;22.558;2023-07-16T00:02:07;21.70;1.00
34460;DHT22;20704;51.260;22.558;2023-07-16T00:04:09;21.70;1.00
34460;DHT22;20704;51.260;22.558;2023-07-16T00:06:11;21.70;1.00
34460;DHT22;20704;51.260;22.558;2023-07-16T00:08:14;21.60;1.00
34460;DHT22;20704;51.260;22.558;2023-07-16T00:10:17;21.60;1.00
34460;DHT22;20704;51.260;22.558;2023-07-16T00:12:19;21.60;1.00
34460;DHT22;20704;51.260;22.558;2023-07-16T00:14:21;21.50;1.00
34460;DHT22;20704;51.260;22.558;2023-07-16T00:16:24;21.50;1.00
34460;DHT22;20704;51.260;22.558;2023-07-16T00:18:26;21.40;1.00
34460;DHT22;20704;51.260;22.558;2023-07-16T00:20:28;21.30;1.00
34460;DHT22;20704;51.260;22.558;2023-07-16T00:22:31;21.30;19.90
34460;DHT22;20704;51.260;22.558;2023-07-16T00:24:33;21.30;53.40
34460;DHT22;20704;51.260;22.558;2023-07-16T00:26:35;21.20;92.60
34460;DHT22;20704;51.260;22.558;2023-07-16T00:28:37;21.20;99.10
34460;DHT22;20704;51.260;22.558;2023-07-16T00:30:40;21.20;99.90
34460;DHT22;20704;51.260;22.558;2023-07-16T00:32:42;21.20;99.90
34460;DHT22;20704;51.260;22.558;2023-07-16T00:34:45;21.10;99.90
34460;DHT22;20704;51.260;22.558;2023-07-16T00:36:47;21.00;99.90
34460;DHT22;20704;51.260;22.558;2023-07-16T00:38:50;21.00;99.90
34460;DHT22;20704;51.260;22.558;2023-07-16T00:40:52;21.10;99.90
34460;DHT22;20704;51.260;22.558;2023-07-16T00:42:54;21.00;99.90
34460;DHT22;20704;51.260;22.558;2023-07-16T00:44:57;21.00;99.90
34460;DHT22;20704;51.260;22.558;2023-07-16T00:46:59;21.00;99.90
34460;DHT22;20704;51.260;22.558;2023-07-16T00:49:01;21.00;99.90
34460;DHT22;20704;51.260;22.558;2023-07-16T00:51:04;21.00;99.90
34460;DHT22;20704;51.260;22.558;2023-07-16T00:53:08;20.90;99.90
34460;DHT22;20704;51.260;22.558;2023-07-16T00:55:11;20.90;99.90
34460;DHT22;20704;51.260;22.558;2023-07-16T00:57:13;20.90;99.90
34460;DHT22;20704;51.260;22.558;2023-07-16T00:59:16;20.90;99.90
34460;DHT22;20704;51.260;22.558;2023-07-16T01:01:18;20.80;99.90
34460;DHT22;20704;51.260;22.558;2023-07-16T01:03:21;20.80;99.90
34460;DHT22;20704;51.260;22.558;2023-07-16T01:05:24;20.80;1.00
34460;DHT22;20704;51.260;22.558;2023-07-16T01:07:31;20.70;1.00
34460;DHT22;20704;51.260;22.558;2023-07-16T01:09:37;20.70;1.00
34460;DHT22;20704;51.260;22.558;2023-07-16T01:11:44;20.70;1.00
34460;DHT22;20704;51.260;22.558;2023-07-16T01:13:46;20.70;1.00
34460;DHT22;20704;51.260;22.558;2023-07-16T01:15:49;20.70;1.00
34460;DHT22;20704;51.260;22.558;2023-07-16T01:17:51;20.70;1.00
34460;DHT22;20704;51.260;22.558;2023-07-16T01:19:54;20.60;24.90
34460;DHT22;20704;51.260;22.558;2023-07-16T01:29:36;20.40;99.90
34460;DHT22;20704;51.260;22.558;2023-07-16T01:31:40;20.30;99.90
34460;DHT22;20704;51.260;22.558;2023-07-16T01:33:43;20.40;99.90
34460;DHT22;20704;51.260;22.558;2023-07-16T01:35:47;20.40;99.90
34460;DHT22;20704;51.260;22.558;2023-07-16T01:37:50;20.40;99.90
34460;DHT22;20704;51.260;22.558;2023-07-16T01:39:53;20.50;99.90
34460;DHT22;20704;51.260;22.558;2023-07-16T01:41:56;20.50;99.90
34460;DHT22;20704;51.260;22.558;2023-07-16T01:43:58;20.50;91.10
34460;DHT22;20704;51.260;22.558;2023-07-16T01:46:01;20.50;99.90
34460;DHT22;20704;51.260;22.558;2023-07-16T01:50:31;20.50;99.90
34460;DHT22;20704;51.260;22.558;2023-07-16T01:52:33;20.40;99.90
34460;DHT22;20704;51.260;22.558;2023-07-16T01:54:36;20.40;99.90
34460;DHT22;20704;51.260;22.558;2023-07-16T01:56:38;20.40;99.90
34460;DHT22;20704;51.260;22.558;2023-07-16T01:58:41;20.40;99.90
34460;DHT22;20704;51.260;22.558;2023-07-16T02:00:43;20.40;99.90
34460;DHT22;20704;51.260;22.558;2023-07-16T02:02:46;20.30;99.90
34460;DHT22;20704;51.260;22.558;2023-07-16T02:04:48;20.30;99.90
34460;DHT22;20704;51.260;22.558;2023-07-16T02:06:51;20.30;99.90
34460;DHT22;20704;51.260;22.558;2023-07-16T02:08:53;20.20;99.90
34460;DHT22;20704;51.260;22.558;2023-07-16T02:10:56;20.20;99.90
34460;DHT22;20704;51.260;22.558;2023-07-16T02:12:58;20.20;99.90
34460;DHT22;20704;51.260;22.558;2023-07-16T02:15:00;20.30;99.90
34460;DHT22;20704;51.260;22.558;2023-07-16T02:17:03;20.30;99.90
34460;DHT22;20704;51.260;22.558;2023-07-16T02:19:05;20.20;99.90
34460;DHT22;20704;51.260;22.558;2023-07-16T02:21:07;20.30;99.90
34460;DHT22;20704;51.260;22.558;2023-07-16T02:23:10;20.30;99.90
34460;DHT22;20704;51.260;22.558;2023-07-16T02:25:12;20.30;99.90
34460;DHT22;20704;51.260;22.558;2023-07-16T02:27:15;20.40;99.90
34460;DHT22;20704;51.260;22.558;2023-07-16T02:29:17;20.30;99.90
34460;DHT22;20704;51.260;22.558;2023-07-16T02:31:19;20.40;99.90
34460;DHT22;20704;51.260;22.558;2023-07-16T02:33:22;20.40;99.90
34460;DHT22;20704;51.260;22.558;2023-07-16T02:35:24;20.40;99.90
34460;DHT22;20704;51.260;22.558;2023-07-16T02:37:26;20.40;99.90
34460;DHT22;20704;51.260;22.558;2023-07-16T02:39:29;20.30;99.90
34460;DHT22;20704;51.260;22.558;2023-07-16T02:41:31;20.30;99.90
34460;DHT22;20704;51.260;22.558;2023-07-16T02:43:33;20.30;99.90
34460;DHT22;20704;51.260;22.558;2023-07-16T02:45:36;20.30;99.90
34460;DHT22;20704;51.260;22.558;2023-07-16T02:47:38;20.40;99.90
34460;DHT22;20704;51.260;22.558;2023-07-16T02:49:40;20.40;99.90
34460;DHT22;20704;51.260;22.558;2023-07-16T02:51:43;20.30;99.90
34460;DHT22;20704;51.260;22.558;2023-07-16T02:53:45;20.30;99.90
34460;DHT22;20704;51.260;22.558;2023-07-16T02:55:47;20.40;99.90
34460;DHT22;20704;51.260;22.558;2023-07-16T02:57:50;20.20;99.90
34460;DHT22;20704;51.260;22.558;2023-07-16T02:59:52;20.30;99.90
34460;DHT22;20704;51.260;22.558;2023-07-16T03:01:54;20.30;99.90
34460;DHT22;20704;51.260;22.558;2023-07-16T03:03:57;20.30;99.90
34460;DHT22;20704;51.260;22.558;2023-07-16T03:05:59;20.40;99.90
34460;DHT22;20704;51.260;22.558;2023-07-16T03:08:02;20.30;99.90
34460;DHT22;20704;51.260;22.558;2023-07-16T03:10:04;20.40;99.90
34460;DHT22;20704;51.260;22.558;2023-07-16T03:12:07;20.40;99.90
34460;DHT22;20704;51.260;22.558;2023-07-16T03:14:10;20.40;99.90
34460;DHT22;20704;51.260;22.558;2023-07-16T03:16:12;20.40;99.90
34460;DHT22;20704;51.260;22.558;2023-07-16T03:18:18;20.50;99.90
34460;DHT22;20704;51.260;22.558;2023-07-16T03:20:20;20.60;76.50
34460;DHT22;20704;51.260;22.558;2023-07-16T03:22:22;20.60;18.60
34460;DHT22;20704;51.260;22.558;2023-07-16T03:24:25;20.60;1.00
34460;DHT22;20704;51.260;22.558;2023-07-16T03:26:27;20.60;1.00
34460;DHT22;20704;51.260;22.558;2023-07-16T03:28:29;20.60;1.00
34460;DHT22;20704;51.260;22.558;2023-07-16T03:30:32;20.60;1.00
34460;DHT22;20704;51.260;22.558;2023-07-16T03:32:35;20.60;1.00
34460;DHT22;20704;51.260;22.558;2023-07-16T03:34:53;20.70;1.00
34460;DHT22;20704;51.260;22.558;2023-07-16T03:36:55;20.90;1.00
34460;DHT22;20704;51.260;22.558;2023-07-16T03:38:58;21.10;99.90
34460;DHT22;20704;51.260;22.558;2023-07-16T03:41:00;21.20;99.90
34460;DHT22;20704;51.260;22.558;2023-07-16T03:43:02;21.30;99.90
34460;DHT22;20704;51.260;22.558;2023-07-16T03:45:05;21.40;99.90
34460;DHT22;20704;51.260;22.558;2023-07-16T03:47:08;21.30;99.90
34460;DHT22;20704;51.260;22.558;2023-07-16T03:49:10;21.30;99.90
34460;DHT22;20704;51.260;22.558;2023-07-16T03:51:12;21.20;99.90
34460;DHT22;20704;51.260;22.558;2023-07-16T03:53:15;21.10;99.90
34460;DHT22;20704;51.260;22.558;2023-07-16T03:55:17;21.20;99.90
34460;DHT22;20704;51.260;22.558;2023-07-16T03:57:19;21.30;99.90
34460;DHT22;20704;51.260;22.558;2023-07-16T03:59:22;21.40;99.90
34460;DHT22;20704;51.260;22.558;2023-07-16T04:01:24;21.50;99.90
34460;DHT22;20704;51.260;22.558;2023-07-16T04:03:26;21.60;99.90
34460;DHT22;20704;51.260;22.558;2023-07-16T04:05:29;21.70;63.50
34460;DHT22;20704;51.260;22.558;2023-07-16T04:07:31;21.90;29.00
34460;DHT22;20704;51.260;22.558;2023-07-16T04:09:37;22.00;1.00
34460;DHT22;20704;51.260;22.558;2023-07-16T04:11:40;22.20;1.00
34460;DHT22;20704;51.260;22.558;2023-07-16T04:13:42;22.20;1.00
34460;DHT22;20704;51.260;22.558;2023-07-16T04:15:44;22.20;1.00
34460;DHT22;20704;51.260;22.558;2023-07-16T04:17:47;22.40;1.00
34460;DHT22;20704;51.260;22.558;2023-07-16T04:19:49;22.40;1.00
34460;DHT22;20704;51.260;22.558;2023-07-16T04:21:52;22.60;1.00
34460;DHT22;20704;51.260;22.558;2023-07-16T04:23:54;22.70;1.00
34460;DHT22;20704;51.260;22.558;2023-07-16T04:25:56;22.80;99.90
34460;DHT22;20704;51.260;22.558;2023-07-16T04:27:58;22.90;99.90
34460;DHT22;20704;51.260;22.558;2023-07-16T04:30:01;23.00;99.90
34460;DHT22;20704;51.260;22.558;2023-07-16T04:32:04;23.20;99.90
34460;DHT22;20704;51.260;22.558;2023-07-16T04:34:06;23.40;99.90
34460;DHT22;20704;51.260;22.558;2023-07-16T04:36:09;23.60;99.90
34460;DHT22;20704;51.260;22.558;2023-07-16T04:38:11;23.70;99.90
34460;DHT22;20704;51.260;22.558;2023-07-16T04:40:13;23.80;99.90
34460;DHT22;20704;51.260;22.558;2023-07-16T04:42:16;23.90;99.90
34460;DHT22;20704;51.260;22.558;2023-07-16T04:44:18;24.00;99.90
34460;DHT22;20704;51.260;22.558;2023-07-16T04:46:21;24.00;99.90
34460;DHT22;20704;51.260;22.558;2023-07-16T04:48:23;24.30;99.90
34460;DHT22;20704;51.260;22.558;2023-07-16T04:50:26;24.50;99.90
34460;DHT22;20704;51.260;22.558;2023-07-16T04:52:28;24.80;99.90
34460;DHT22;20704;51.260;22.558;2023-07-16T04:54:37;24.90;99.90
34460;DHT22;20704;51.260;22.558;2023-07-16T04:56:40;25.00;99.90
34460;DHT22;20704;51.260;22.558;2023-07-16T04:58:42;25.20;99.90
34460;DHT22;20704;51.260;22.558;2023-07-16T05:00:45;25.60;99.90
34460;DHT22;20704;51.260;22.558;2023-07-16T05:02:48;25.70;99.90
34460;DHT22;20704;51.260;22.558;2023-07-16T05:04:50;25.70;99.90
34460;DHT22;20704;51.260;22.558;2023-07-16T05:06:53;26.20;99.90
34460;DHT22;20704;51.260;22.558;2023-07-16T05:08:55;26.30;99.90
34460;DHT22;20704;51.260;22.558;2023-07-16T05:10:57;26.10;99.90
34460;DHT22;20704;51.260;22.558;2023-07-16T05:13:01;26.20;99.90
34460;DHT22;20704;51.260;22.558;2023-07-16T05:15:06;26.20;99.90
34460;DHT22;20704;51.260;22.558;2023-07-16T05:17:08;26.30;99.90
34460;DHT22;20704;51.260;22.558;2023-07-16T05:19:11;26.40;99.90
34460;DHT22;20704;51.260;22.558;2023-07-16T05:21:13;26.30;99.90
34460;DHT22;20704;51.260;22.558;2023-07-16T05:23:16;26.20;99.90
34460;DHT22;20704;51.260;22.558;2023-07-16T05:25:18;26.50;99.90
34460;DHT22;20704;51.260;22.558;2023-07-16T05:27:20;26.70;99.90
34460;DHT22;20704;51.260;22.558;2023-07-16T05:29:23;26.50;99.90
34460;DHT22;20704;51.260;22.558;2023-07-16T05:31:25;26.80;99.90
34460;DHT22;20704;51.260;22.558;2023-07-16T05:33:28;26.80;99.90
34460;DHT22;20704;51.260;22.558;2023-07-16T05:35:30;27.20;99.90
34460;DHT22;20704;51.260;22.558;2023-07-16T05:37:33;27.40;99.90
34460;DHT22;20704;51.260;22.558;2023-07-16T05:39:35;27.00;99.90
34460;DHT22;20704;51.260;22.558;2023-07-16T05:41:39;27.20;99.90
34460;DHT22;20704;51.260;22.558;2023-07-16T05:43:42;27.30;99.90
34460;DHT22;20704;51.260;22.558;2023-07-16T05:45:44;27.30;99.90
34460;DHT22;20704;51.260;22.558;2023-07-16T05:47:47;27.20;99.90
34460;DHT22;20704;51.260;22.558;2023-07-16T05:49:49;27.20;99.90
34460;DHT22;20704;51.260;22.558;2023-07-16T05:51:52;27.60;99.90
34460;DHT22;20704;51.260;22.558;2023-07-16T05:53:54;28.00;99.90
34460;DHT22;20704;51.260;22.558;2023-07-16T05:55:56;28.10;99.90
34460;DHT22;20704;51.260;22.558;2023-07-16T05:57:59;28.30;99.90
34460;DHT22;20704;51.260;22.558;2023-07-16T06:00:01;28.60;99.90
34460;DHT22;20704;51.260;22.558;2023-07-16T06:02:06;28.80;99.90
34460;DHT22;20704;51.260;22.558;2023-07-16T06:04:08;29.30;99.90
34460;DHT22;20704;51.260;22.558;2023-07-16T06:06:11;29.10;99.90
34460;DHT22;20704;51.260;22.558;2023-07-16T06:08:13;29.20;99.90
34460;DHT22;20704;51.260;22.558;2023-07-16T06:10:16;29.20;99.90
34460;DHT22;20704;51.260;22.558;2023-07-16T06:12:18;28.90;99.90
34460;DHT22;20704;51.260;22.558;2023-07-16T06:14:20;28.40;99.90
34460;DHT22;20704;51.260;22.558;2023-07-16T06:16:23;28.40;99.90
34460;DHT22;20704;51.260;22.558;2023-07-16T06:18:25;28.10;99.90
34460;DHT22;20704;51.260;22.558;2023-07-16T06:20:27;28.30;99.90
34460;DHT22;20704;51.260;22.558;2023-07-16T06:22:30;28.40;99.90
34460;DHT22;20704;51.260;22.558;2023-07-16T06:24:33;28.60;99.90
34460;DHT22;20704;51.260;22.558;2023-07-16T06:26:35;28.70;99.90
34460;DHT22;20704;51.260;22.558;2023-07-16T06:28:38;28.80;99.90
34460;DHT22;20704;51.260;22.558;2023-07-16T06:30:40;29.10;99.90
34460;DHT22;20704;51.260;22.558;2023-07-16T06:32:43;29.60;99.90
34460;DHT22;20704;51.260;22.558;2023-07-16T06:34:45;29.50;99.90
34460;DHT22;20704;51.260;22.558;2023-07-16T06:36:48;29.70;99.90
34460;DHT22;20704;51.260;22.558;2023-07-16T06:38:50;30.10;99.90
34460;DHT22;20704;51.260;22.558;2023-07-16T06:40:53;30.50;99.90
34460;DHT22;20704;51.260;22.558;2023-07-16T06:42:55;30.60;99.90
34460;DHT22;20704;51.260;22.558;2023-07-16T06:44:58;30.50;99.90
34460;DHT22;20704;51.260;22.558;2023-07-16T06:47:00;30.70;99.90
34460;DHT22;20704;51.260;22.558;2023-07-16T06:49:05;30.60;99.40
34460;DHT22;20704;51.260;22.558;2023-07-16T06:51:08;30.90;99.50
34460;DHT22;20704;51.260;22.558;2023-07-16T06:53:10;30.90;97.50
34460;DHT22;20704;51.260;22.558;2023-07-16T06:55:12;30.80;96.60
34460;DHT22;20704;51.260;22.558;2023-07-16T06:57:15;31.20;97.40
34460;DHT22;20704;51.260;22.558;2023-07-16T06:59:17;31.20;95.90
34460;DHT22;20704;51.260;22.558;2023-07-16T07:01:19;31.60;95.60
34460;DHT22;20704;51.260;22.558;2023-07-16T07:03:22;31.80;94.70
34460;DHT22;20704;51.260;22.558;2023-07-16T07:05:25;32.00;88.30
34460;DHT22;20704;51.260;22.558;2023-07-16T07:07:27;31.90;93.50
34460;DHT22;20704;51.260;22.558;2023-07-16T07:09:29;32.10;92.40
34460;DHT22;20704;51.260;22.558;2023-07-16T07:11:32;31.60;90.40
34460;DHT22;20704;51.260;22.558;2023-07-16T07:13:34;31.30;51.20
34460;DHT22;20704;51.260;22.558;2023-07-16T07:15:36;31.60;48.30
34460;DHT22;20704;51.260;22.558;2023-07-16T07:19:44;32.20;38.80
34460;DHT22;20704;51.260;22.558;2023-07-16T07:21:46;32.30;47.10
34460;DHT22;20704;51.260;22.558;2023-07-16T07:23:49;32.40;46.00
34460;DHT22;20704;51.260;22.558;2023-07-16T07:25:51;32.30;99.90
34460;DHT22;20704;51.260;22.558;2023-07-16T07:27:54;32.20;99.90
34460;DHT22;20704;51.260;22.558;2023-07-16T07:29:56;32.30;99.90
34460;DHT22;20704;51.260;22.558;2023-07-16T07:31:58;32.30;52.70
34460;DHT22;20704;51.260;22.558;2023-07-16T07:34:02;32.10;99.90
34460;DHT22;20704;51.260;22.558;2023-07-16T07:36:04;31.90;99.90
34460;DHT22;20704;51.260;22.558;2023-07-16T07:38:07;32.40;46.30
34460;DHT22;20704;51.260;22.558;2023-07-16T07:40:09;32.50;50.00
34460;DHT22;20704;51.260;22.558;2023-07-16T07:44:15;32.90;27.60
34460;DHT22;20704;51.260;22.558;2023-07-16T07:48:20;33.10;26.60
34460;DHT22;20704;51.260;22.558;2023-07-16T07:52:27;33.40;99.90
34460;DHT22;20704;51.260;22.558;2023-07-16T07:54:31;33.20;41.40
34460;DHT22;20704;51.260;22.558;2023-07-16T07:56:34;33.10;32.20
34460;DHT22;20704;51.260;22.558;2023-07-16T07:58:37;33.30;32.10
34460;DHT22;20704;51.260;22.558;2023-07-16T08:00:39;33.30;99.90
34460;DHT22;20704;51.260;22.558;2023-07-16T08:02:42;32.90;99.90
34460;DHT22;20704;51.260;22.558;2023-07-16T08:06:49;32.80;20.60
34460;DHT22;20704;51.260;22.558;2023-07-16T08:08:51;33.10;28.40
34460;DHT22;20704;51.260;22.558;2023-07-16T08:10:55;32.20;25.40
34460;DHT22;20704;51.260;22.558;2023-07-16T08:15:00;31.90;99.00
34460;DHT22;20704;51.260;22.558;2023-07-16T08:17:02;31.90;24.20
34460;DHT22;20704;51.260;22.558;2023-07-16T08:19:05;32.20;24.40
34460;DHT22;20704;51.260;22.558;2023-07-16T08:21:07;32.00;23.20
34460;DHT22;20704;51.260;22.558;2023-07-16T08:23:09;32.10;23.40
34460;DHT22;20704;51.260;22.558;2023-07-16T08:25:12;32.20;23.40
34460;DHT22;20704;51.260;22.558;2023-07-16T08:27:15;32.50;24.20
34460;DHT22;20704;51.260;22.558;2023-07-16T08:29:17;32.90;46.70
34460;DHT22;20704;51.260;22.558;2023-07-16T08:31:19;33.00;25.30
34460;DHT22;20704;51.260;22.558;2023-07-16T08:33:23;33.30;24.10
34460;DHT22;20704;51.260;22.558;2023-07-16T08:35:25;33.10;23.40
34460;DHT22;20704;51.260;22.558;2023-07-16T08:37:28;33.10;22.30
34460;DHT22;20704;51.260;22.558;2023-07-16T08:39:31;32.80;13.60
34460;DHT22;20704;51.260;22.558;2023-07-16T08:41:33;32.20;99.90
34460;DHT22;20704;51.260;22.558;2023-07-16T08:43:36;32.10;19.30
34460;DHT22;20704;51.260;22.558;2023-07-16T08:45:39;32.60;20.20
34460;DHT22;20704;51.260;22.558;2023-07-16T08:47:44;32.80;26.30
34460;DHT22;20704;51.260;22.558;2023-07-16T08:49:54;32.90;19.80
34460;DHT22;20704;51.260;22.558;2023-07-16T08:52:01;33.10;20.10
34460;DHT22;20704;51.260;22.558;2023-07-16T08:54:04;32.80;18.90
34460;DHT22;20704;51.260;22.558;2023-07-16T08:58:09;33.40;99.90
34460;DHT22;20704;51.260;22.558;2023-07-16T09:00:13;32.90;99.90
34460;DHT22;20704;51.260;22.558;2023-07-16T09:02:17;33.40;99.90
34460;DHT22;20704;51.260;22.558;2023-07-16T09:06:24;33.40;10.20
34460;DHT22;20704;51.260;22.558;2023-07-16T09:08:26;33.30;17.60
34460;DHT22;20704;51.260;22.558;2023-07-16T09:10:30;33.40;17.00
34460;DHT22;20704;51.260;22.558;2023-07-16T09:12:33;33.70;17.20
34460;DHT22;20704;51.260;22.558;2023-07-16T09:14:35;33.70;17.40
34460;DHT22;20704;51.260;22.558;2023-07-16T09:16:37;33.80;16.60
34460;DHT22;20704;51.260;22.558;2023-07-16T09:18:40;33.80;99.90
34460;DHT22;20704;51.260;22.558;2023-07-16T09:20:43;33.70;16.00
34460;DHT22;20704;51.260;22.558;2023-07-16T09:22:47;33.90;6.80
34460;DHT22;20704;51.260;22.558;2023-07-16T09:26:54;33.90;6.50
34460;DHT22;20704;51.260;22.558;2023-07-16T09:29:00;33.90;14.40
34460;DHT22;20704;51.260;22.558;2023-07-16T09:31:06;33.80;13.20
34460;DHT22;20704;51.260;22.558;2023-07-16T09:33:13;33.50;13.00
34460;DHT22;20704;51.260;22.558;2023-07-16T09:35:16;33.50;12.00
34460;DHT22;20704;51.260;22.558;2023-07-16T09:37:19;33.70;11.80
34460;DHT22;20704;51.260;22.558;2023-07-16T09:39:22;33.70;12.80
34460;DHT22;20704;51.260;22.558;2023-07-16T09:41:25;33.50;11.70
34460;DHT22;20704;51.260;22.558;2023-07-16T09:43:27;33.60;11.60
34460;DHT22;20704;51.260;22.558;2023-07-16T09:45:29;33.40;10.70
34460;DHT22;20704;51.260;22.558;2023-07-16T09:47:32;33.60;11.70
34460;DHT22;20704;51.260;22.558;2023-07-16T09:49:34;33.40;11.00
34460;DHT22;20704;51.260;22.558;2023-07-16T09:51:38;33.50;13.10
34460;DHT22;20704;51.260;22.558;2023-07-16T09:53:42;33.40;11.00
34460;DHT22;20704;51.260;22.558;2023-07-16T09:55:46;33.10;18.80
34460;DHT22;20704;51.260;22.558;2023-07-16T09:57:53;33.10;9.00
34460;DHT22;20704;51.260;22.558;2023-07-16T09:59:58;33.30;9.70
34460;DHT22;20704;51.260;22.558;2023-07-16T10:02:03;32.70;8.50
34460;DHT22;20704;51.260;22.558;2023-07-16T10:04:18;32.90;9.10
34460;DHT22;20704;51.260;22.558;2023-07-16T10:06:23;33.10;9.40
34460;DHT22;20704;51.260;22.558;2023-07-16T10:08:25;32.90;9.00
34460;DHT22;20704;51.260;22.558;2023-07-16T10:10:45;32.90;9.20
34460;DHT22;20704;51.260;22.558;2023-07-16T10:13:01;33.30;9.40
34460;DHT22;20704;51.260;22.558;2023-07-16T10:15:04;33.00;8.00
34460;DHT22;20704;51.260;22.558;2023-07-16T10:17:07;33.10;8.10
34460;DHT22;20704;51.260;22.558;2023-07-16T10:19:14;32.90;7.70
34460;DHT22;20704;51.260;22.558;2023-07-16T10:21:24;33.10;7.70
34460;DHT22;20704;51.260;22.558;2023-07-16T10:23:43;33.30;8.10
34460;DHT22;20704;51.260;22.558;2023-07-16T10:26:02;33.60;8.80
34460;DHT22;20704;51.260;22.558;2023-07-16T10:28:11;33.50;7.70
34460;DHT22;20704;51.260;22.558;2023-07-16T10:30:14;33.50;17.40
34460;DHT22;20704;51.260;22.558;2023-07-16T10:32:16;33.10;6.50
34460;DHT22;20704;51.260;22.558;2023-07-16T10:34:22;33.20;7.40
34460;DHT22;20704;51.260;22.558;2023-07-16T10:36:25;33.40;7.10
34460;DHT22;20704;51.260;22.558;2023-07-16T10:38:27;33.40;7.50
34460;DHT22;20704;51.260;22.558;2023-07-16T10:40:30;33.30;6.60
34460;DHT22;20704;51.260;22.558;2023-07-16T10:42:32;33.30;7.10
34460;DHT22;20704;51.260;22.558;2023-07-16T10:44:35;33.50;7.30
34460;DHT22;20704;51.260;22.558;2023-07-16T10:46:37;33.30;6.30
34460;DHT22;20704;51.260;22.558;2023-07-16T10:48:46;33.20;5.60
34460;DHT22;20704;51.260;22.558;2023-07-16T10:50:53;33.40;5.90
34460;DHT22;20704;51.260;22.558;2023-07-16T10:52:56;33.50;6.30
34460;DHT22;20704;51.260;22.558;2023-07-16T10:54:59;33.50;5.40
34460;DHT22;20704;51.260;22.558;2023-07-16T10:57:03;33.60;6.10
34460;DHT22;20704;51.260;22.558;2023-07-16T10:59:05;33.40;5.20
34460;DHT22;20704;51.260;22.558;2023-07-16T11:01:12;33.50;5.40
34460;DHT22;20704;51.260;22.558;2023-07-16T11:03:17;33.50;4.60
34460;DHT22;20704;51.260;22.558;2023-07-16T11:05:20;33.70;5.10
34460;DHT22;20704;51.260;22.558;2023-07-16T11:07:22;33.80;4.80
34460;DHT22;20704;51.260;22.558;2023-07-16T11:09:25;34.00;5.60
34460;DHT22;20704;51.260;22.558;2023-07-16T11:11:28;34.10;2.90
34460;DHT22;20704;51.260;22.558;2023-07-16T11:13:32;33.70;1.80
34460;DHT22;20704;51.260;22.558;2023-07-16T11:15:35;33.80;2.80
34460;DHT22;20704;51.260;22.558;2023-07-16T11:17:38;33.80;1.80
34460;DHT22;20704;51.260;22.558;2023-07-16T11:19:47;33.80;2.00
34460;DHT22;20704;51.260;22.558;2023-07-16T11:21:50;33.80;2.20
34460;DHT22;20704;51.260;22.558;2023-07-16T11:23:52;34.00;2.30
34460;DHT22;20704;51.260;22.558;2023-07-16T11:25:55;34.00;1.10
34460;DHT22;20704;51.260;22.558;2023-07-16T11:27:57;33.80;1.00
34460;DHT22;20704;51.260;22.558;2023-07-16T11:30:00;33.80;1.00
34460;DHT22;20704;51.260;22.558;2023-07-16T11:32:03;33.70;1.00
34460;DHT22;20704;51.260;22.558;2023-07-16T11:34:05;33.70;1.00
34460;DHT22;20704;51.260;22.558;2023-07-16T11:36:09;33.80;1.00
34460;DHT22;20704;51.260;22.558;2023-07-16T11:38:11;33.90;1.00
34460;DHT22;20704;51.260;22.558;2023-07-16T11:40:19;33.70;1.00
34460;DHT22;20704;51.260;22.558;2023-07-16T11:42:23;33.90;1.00
34460;DHT22;20704;51.260;22.558;2023-07-16T11:44:32;33.90;1.00
34460;DHT22;20704;51.260;22.558;2023-07-16T11:46:35;34.00;1.00
34460;DHT22;20704;51.260;22.558;2023-07-16T11:48:37;34.00;1.00
34460;DHT22;20704;51.260;22.558;2023-07-16T11:50:39;34.10;1.00
34460;DHT22;20704;51.260;22.558;2023-07-16T11:52:42;34.00;1.00
34460;DHT22;20704;51.260;22.558;2023-07-16T11:54:44;34.10;1.00
34460;DHT22;20704;51.260;22.558;2023-07-16T11:56:46;34.10;1.00
34460;DHT22;20704;51.260;22.558;2023-07-16T11:58:50;34.30;1.00
34460;DHT22;20704;51.260;22.558;2023-07-16T12:00:52;34.30;1.00
34460;DHT22;20704;51.260;22.558;2023-07-16T12:02:55;34.00;1.00
34460;DHT22;20704;51.260;22.558;2023-07-16T12:04:58;33.70;1.00
34460;DHT22;20704;51.260;22.558;2023-07-16T12:07:00;33.60;1.00
34460;DHT22;20704;51.260;22.558;2023-07-16T12:09:03;33.50;1.00
34460;DHT22;20704;51.260;22.558;2023-07-16T12:11:05;33.50;1.00
34460;DHT22;20704;51.260;22.558;2023-07-16T12:13:08;33.50;1.00
34460;DHT22;20704;51.260;22.558;2023-07-16T12:15:10;33.60;1.00
34460;DHT22;20704;51.260;22.558;2023-07-16T12:17:13;33.70;1.00
34460;DHT22;20704;51.260;22.558;2023-07-16T12:19:16;33.50;1.00
34460;DHT22;20704;51.260;22.558;2023-07-16T12:21:18;33.50;1.00
34460;DHT22;20704;51.260;22.558;2023-07-16T12:23:21;33.40;1.00
34460;DHT22;20704;51.260;22.558;2023-07-16T12:25:23;33.30;1.00
34460;DHT22;20704;51.260;22.558;2023-07-16T12:27:26;33.40;1.00
34460;DHT22;20704;51.260;22.558;2023-07-16T12:29:28;33.30;1.00
34460;DHT22;20704;51.260;22.558;2023-07-16T12:31:31;33.40;1.00
34460;DHT22;20704;51.260;22.558;2023-07-16T12:33:34;33.50;1.00
34460;DHT22;20704;51.260;22.558;2023-07-16T12:35:36;33.40;1.00
34460;DHT22;20704;51.260;22.558;2023-07-16T12:37:39;33.50;1.00
34460;DHT22;20704;51.260;22.558;2023-07-16T12:39:42;33.50;1.00
34460;DHT22;20704;51.260;22.558;2023-07-16T12:41:44;33.50;1.00
34460;DHT22;20704;51.260;22.558;2023-07-16T12:43:47;33.60;1.00
34460;DHT22;20704;51.260;22.558;2023-07-16T12:45:49;33.60;1.00
34460;DHT22;20704;51.260;22.558;2023-07-16T12:47:52;33.50;1.00
34460;DHT22;20704;51.260;22.558;2023-07-16T12:49:54;33.50;1.00
34460;DHT22;20704;51.260;22.558;2023-07-16T12:51:57;33.60;1.00
34460;DHT22;20704;51.260;22.558;2023-07-16T12:53:59;33.50;1.00
34460;DHT22;20704;51.260;22.558;2023-07-16T12:56:03;33.30;1.00
34460;DHT22;20704;51.260;22.558;2023-07-16T12:58:05;33.40;1.00
34460;DHT22;20704;51.260;22.558;2023-07-16T13:00:07;33.50;1.00
34460;DHT22;20704;51.260;22.558;2023-07-16T13:02:11;33.60;1.00
34460;DHT22;20704;51.260;22.558;2023-07-16T13:04:14;33.60;1.00
34460;DHT22;20704;51.260;22.558;2023-07-16T13:06:16;33.60;1.00
34460;DHT22;20704;51.260;22.558;2023-07-16T13:08:19;33.60;1.00
34460;DHT22;20704;51.260;22.558;2023-07-16T13:10:22;33.70;1.00
34460;DHT22;20704;51.260;22.558;2023-07-16T13:12:25;33.70;1.00
34460;DHT22;20704;51.260;22.558;2023-07-16T13:14:28;33.80;1.00
34460;DHT22;20704;51.260;22.558;2023-07-16T13:16:30;33.80;1.00